• Join FlightAware (Why Join?)
  • Login
  • US Flag 
03:10AM EDT


 

Airport Tracker/Info


-or-


 

Live Flight TrackerFlight Track Log ✈ EJA846 ✈ 30-Apr-2013 ✈ KDWH - KVRB

Flight Track Log - Related Links

Times and Time Zones

All times are in EDT time to prevent confusion due to time zone crossing. See the EJA846 flight status page for this flight to view local times or setup timezone preferences in your user account.

Time Position Orientation Groundspeed Altitude Reporting Facility
EDT Latitude Longitude Course Direction KTS MPH feet Rate Location/Type
06:04AM 30.0500 -95.5525 172° South 181 208 1,000  Level Houston Center
06:04AM 30.0331 -95.5497 172° South 185 213 1,900 2,040 Climbing Houston Center
06:05AM 30.0172 -95.5494 179° South 206 237 2,500 4,080 Climbing Houston Center
06:05AM 29.9719 -95.5472 178° South 235 270 6,000 4,860 Climbing Houston Center
06:06AM 29.9536 -95.5433 170° South 226 260 7,400 3,480 Climbing Houston Center
06:07AM 29.9325 -95.4761 110° East 240 276 11,000 3,120 Climbing Houston Center
06:08AM 29.9269 -95.3850 94° East 279 321 13,800 2,760 Climbing Houston Center
06:09AM 29.9219 -95.2789 93° East 325 374 16,600 2,880 Climbing Houston Center
06:10AM 29.9156 -95.1697 94° East 338 389 19,600 2,520 Climbing Houston Center
06:11AM 29.9089 -95.0556 94° East 353 406 21,700 1,980 Climbing Houston Center
06:12AM 29.9017 -94.9344 94° East 373 429 23,700 2,100 Climbing Houston Center
06:13AM 29.8942 -94.8089 94° East 388 447 26,000 2,100 Climbing Houston Center
06:14AM 29.8856 -94.6842 95° East 390 449 27,900 1,620 Climbing Houston Center
06:15AM 29.8792 -94.5544 93° East 403 464 29,300 1,680 Climbing Houston Center
06:16AM 29.9017 -94.4250 79° East 413 475 31,300 1,620 Climbing Houston Center
06:17AM 29.9228 -94.2933 79° East 408 470 32,600 1,260 Climbing Houston Center
06:18AM 29.9431 -94.1661 80° East 406 467 33,900 1,260 Climbing Houston Center
06:19AM 29.9628 -94.0389 80° East 406 467 35,200 1,380 Climbing Houston Center
06:20AM 29.9833 -93.9108 79° East 408 470 36,700 840 Climbing Houston Center
06:21AM 30.0033 -93.7778 80° East 426 490 37,000 840 Climbing Houston Center
06:22AM 30.0247 -93.6381 80° East 442 509 38,400 1,440 Climbing Houston Center
06:23AM 30.0447 -93.5000 80° East 443 510 39,900 1,200 Climbing Houston Center
06:24AM 30.0656 -93.3639 80° East 438 504 40,900 540 Climbing Houston Center
06:25AM 30.0861 -93.2231 80° East 447 514 41,000  Climbing Houston Center
06:26AM 30.1092 -93.0764 80° East 466 536 41,000  Level Houston Center
06:27AM 30.1311 -92.9269 80° East 472 543 41,000  Level Houston Center
06:28AM 30.1575 -92.7464 80° East 476 548 41,000  Level Houston Center
06:29AM 30.1803 -92.5942 80° East 482 555 41,000  Level Houston Center
06:30AM 30.2019 -92.4417 81° East 482 555 41,000  Level Houston Center
06:31AM 30.2217 -92.3025 81° East 479 551 41,000  Level Houston Center
06:32AM 30.2439 -92.1531 80° East 475 547 41,000  Level Houston Center
06:33AM 30.2650 -92.0033 81° East 475 547 41,000  Level Houston Center
06:34AM 30.2858 -91.8567 81° East 467 537 41,000  Level Houston Center
06:35AM 30.3056 -91.7178 81° East 468 539 41,000  Level Houston Center
06:36AM 30.3303 -91.5403 81° East 466 536 41,000  Level Houston Center
06:37AM 30.3503 -91.3928 81° East 465 535 41,000  Level Houston Center
06:38AM 30.3708 -91.2469 81° East 461 531 41,000  Level Houston Center
06:39AM 30.3917 -91.1006 81° East 461 531 41,000  Level Houston Center
06:40AM 30.4083 -90.9564 82° East 455 524 41,000  Level Houston Center
06:41AM 30.4286 -90.8097 81° East 461 531 41,000  Level Houston Center
06:42AM 30.4478 -90.6631 81° East 461 531 41,000  Level Houston Center
06:43AM 30.4644 -90.5147 83° East 463 533 41,000  Level Houston Center
06:44AM 30.4686 -90.3636 88° East 470 541 41,000  Level Houston Center
06:45AM 30.4744 -90.2142 87° East 465 535 41,000  Level Houston Center
06:46AM 30.4806 -90.0622 87° East 470 541 41,000  Level Houston Center
06:47AM 30.4856 -89.9089 88° East 471 542 41,000  Level Houston Center
06:48AM 30.4931 -89.7506 87° East 486 559 41,000  Level Houston Center
06:49AM 30.4964 -89.5964 89° East 475 547 41,000  Level Houston Center
06:50AM 30.4992 -89.4736 88° East 474 545 41,000  Level Houston Center
06:51AM 30.5047 -89.3206 88° East 474 545 41,000  Level Houston Center
06:52AM 30.5078 -89.1333 89° East 485 558 41,000  Level Houston Center
06:53AM 30.5128 -88.9808 88° East 478 550 41,000  Level Houston Center
06:54AM 30.5142 -88.8275 89° East 477 549 41,000  Level Houston Center
06:55AM 30.5144 -88.6742 90° East 479 551 41,000  Level Houston Center
06:56AM 30.4917 -88.5242 100° East 479 551 41,000  Level Houston Center
06:57AM 30.4717 -88.3731 99° East 479 551 41,000  Level Houston Center
06:58AM 30.4494 -88.2217 100° East 481 554 41,000  Level Houston Center
06:59AM 30.4283 -88.0689 99° East 485 558 41,000  Level Houston Center
07:00AM 30.4067 -87.9158 99° East 486 559 41,000  Level Houston Center
07:01AM 30.3864 -87.8142 103° East 477 549 41,000  Level Jacksonville Center
07:02AM 30.3503 -87.6656 106° East 477 549 41,000  Level Jacksonville Center
07:03AM 30.3100 -87.5192 108° East 477 549 41,000  Level Jacksonville Center
07:04AM 30.2733 -87.3731 106° East 477 549 41,000  Level Jacksonville Center
07:05AM 30.2369 -87.2225 106° East 482 555 41,000  Level Jacksonville Center
07:06AM 30.1961 -87.0619 106° East 482 555 41,000  Level Jacksonville Center
07:07AM 30.1572 -86.9139 107° East 482 555 41,000  Level Jacksonville Center
07:08AM 30.1200 -86.7681 106° East 482 555 41,000  Level Jacksonville Center
07:09AM 30.0786 -86.6178 108° East 482 555 41,000  Level Jacksonville Center
07:10AM 30.0367 -86.4722 108° East 482 555 41,000  Level Jacksonville Center
07:11AM 29.9992 -86.3244 106° East 482 555 41,000  Level Jacksonville Center
07:12AM 29.9592 -86.1769 107° East 487 560 41,000  Level Jacksonville Center
07:13AM 29.9189 -86.0294 107° East 487 560 41,000  Level Jacksonville Center
07:14AM 29.8767 -85.8819 108° East 487 560 41,000  Level Jacksonville Center
07:15AM 29.8361 -85.7322 107° East 487 560 41,000  Level Jacksonville Center
07:16AM 29.7936 -85.5825 108° East 487 560 41,000  Level Jacksonville Center
07:17AM 29.7528 -85.4356 108° East 487 560 41,000  Level Jacksonville Center
07:18AM 29.7139 -85.2886 107° East 487 560 41,000  Level Jacksonville Center
07:19AM 29.6725 -85.1419 108° East 487 560 41,000  Level Jacksonville Center
07:20AM 29.6311 -84.9953 108° East 487 560 41,000  Level Jacksonville Center
07:21AM 29.5878 -84.8486 109° East 482 555 41,000  Level Jacksonville Center
07:22AM 29.5481 -84.6997 107° East 487 560 41,000  Level Jacksonville Center
07:23AM 29.5083 -84.5533 107° East 487 560 41,000  Level Jacksonville Center
07:24AM 29.4703 -84.4217 108° East 487 560 41,000  Level Jacksonville Center
07:25AM 29.4261 -84.2756 109° East 482 555 41,000  Level Jacksonville Center
07:26AM 29.3817 -84.1272 109° East 482 555 41,000 -960 Level Jacksonville Center
07:27AM 29.3411 -83.9789 107° East 482 555 39,100 -1,980 Descending Jacksonville Center
07:28AM 29.2986 -83.8378 109° East 482 555 37,100 -1,860 Descending Jacksonville Center
07:29AM 29.2578 -83.6947 108° East 477 549 35,400 -1,080 Descending Jacksonville Center
07:30AM 29.2147 -83.5517 109° East 472 543 35,000 -240 Descending Jacksonville Center
07:31AM 29.1717 -83.4064 109° East 472 543 35,000  Level Jacksonville Center
07:32AM 29.1283 -83.2586 109° East 477 549 35,000  Level Jacksonville Center
07:33AM 29.0847 -83.1111 109° East 483 556 35,000  Level Jacksonville Center
07:34AM 29.0389 -82.9592 109° East 488 562 35,000  Level Jacksonville Center
07:35AM 28.9950 -82.8119 109° East 488 562 35,000  Level Jacksonville Center
07:36AM 28.9511 -82.6647 109° East 488 562 35,000 -1,140 Level Jacksonville Center
07:37AM 28.9006 -82.4989 109° East 495 570 32,800 -2,100 Descending Jacksonville Center
07:38AM 28.8564 -82.3522 109° East 495 570 30,800 -1,920 Descending Jacksonville Center
07:39AM 28.8181 -82.2244 109° East 484 557 29,000 -2,040 Descending Jacksonville Center
07:40AM 28.7756 -82.0847 109° East 472 543 26,800 -2,160 Descending Jacksonville Center
07:41AM 28.7350 -81.9503 109° East 461 531 24,700 -2,100 Descending Jacksonville Center
07:42AM 28.6944 -81.8228 110° East 442 509 22,700 -840 Descending Jacksonville Center
07:44AM 28.5967 -81.5139 110° East 421 484 22,000 -240 Descending Miami Center
07:45AM 28.5628 -81.3989 109° East 421 484 22,000  Level Miami Center
07:46AM 28.4992 -81.2950 125° Southeast 410 472 22,000  Level Miami Center
07:47AM 28.4078 -81.2158 143° Southeast 405 466 22,000 -600 Level Miami Center
07:48AM 28.3181 -81.1417 144° Southeast 400 460 20,900 -1,860 Descending Miami Center
07:49AM 28.2347 -81.0653 141° Southeast 394 453 18,300 -2,700 Descending Miami Center
07:50AM 28.1514 -80.9892 141° Southeast 365 420 15,600 -2,580 Descending Miami Center
07:51AM 28.0761 -80.9253 143° Southeast 350 403 13,200 -2,460 Descending Miami Center
07:52AM 28.0050 -80.8617 142° Southeast 338 389 10,700 -2,400 Descending Miami Center
07:53AM 27.9417 -80.8053 142° Southeast 311 358 8,500 -2,100 Descending Miami Center
07:54AM 27.8786 -80.7514 143° Southeast 289 333 6,500 -1,980 Descending Miami Center
07:55AM 27.8153 -80.6978 143° Southeast 289 333 4,600 -1,980 Descending Miami Center
07:56AM 27.7661 -80.6561 143° Southeast 261 300 2,600 -1,260 Descending Miami Center
07:57AM 27.7194 -80.6053 136° Southeast 222 255 2,100 -300 Descending Miami Center
07:58AM 27.6981 -80.5461 112° Southeast 203 234 2,000 -480 Descending Miami Center
07:59AM 27.6808 -80.4917 110° East 191 220 1,200 -780 Descending Miami Center
08:00AM 27.6669 -80.4536 112° Southeast 159 183 500 -720 Descending Miami Center